Los Antiguos, Argentina
Current Conditions -  °F | °C
As of 9:00 PM on Tuesday 25 Nov 2014 (Local Time) from SCBA Reporting Station
NA  
Wind Chill: 41°   Ceiling: NA
Heat Index: 48°   Visibility: 6mi
Dew Point: 32°   Wind: 23mph
Humidity: 54%   Direction: 300°WNW
Pressure: 29.91"   Gusts: NA
Location:  46.55°S, 71.62°W
Report Text: SCBA 260000Z AUTO 30020KT 270V330 9999 09/00 Q1013
Loading
Personal Weather Stations






























Interactive Weather Map New forecast layout! Learn more

10-Day Weather Forecast

Advertisements
Track Severe Weather on mobile